createdAt,value
2023-04-15T00:00:00.531Z,981.4
2023-04-15T00:01:00.546Z,981.4
2023-04-15T00:02:00.575Z,981.4
2023-04-15T00:03:00.669Z,981.4
2023-04-15T00:04:00.648Z,981.4
2023-04-15T00:05:00.660Z,981.4
2023-04-15T00:06:00.544Z,981.4
2023-04-15T00:07:00.511Z,981.7
2023-04-15T00:08:00.540Z,981.7
2023-04-15T00:09:00.817Z,981.7
2023-04-15T00:10:00.564Z,981.9
2023-04-15T00:11:00.532Z,981.9
2023-04-15T00:12:00.532Z,981.7
2023-04-15T00:13:00.535Z,981.7
2023-04-15T00:14:00.533Z,981.7
2023-04-15T00:15:00.601Z,981.9
2023-04-15T00:16:00.521Z,981.7
2023-04-15T00:17:00.592Z,981.4
2023-04-15T00:18:00.667Z,981.4
2023-04-15T00:19:00.849Z,981.4
2023-04-15T00:20:00.589Z,981.4
2023-04-15T00:21:00.550Z,981.4
2023-04-15T00:22:00.526Z,981.4
2023-04-15T00:23:00.555Z,981.4
2023-04-15T00:24:00.527Z,981.4
2023-04-15T00:25:00.551Z,981.7
2023-04-15T00:26:00.531Z,981.7
2023-04-15T00:27:00.557Z,981.7
2023-04-15T00:28:00.571Z,981.7
2023-04-15T00:29:00.810Z,981.9
2023-04-15T00:30:00.849Z,981.9
2023-04-15T00:31:00.565Z,981.9
2023-04-15T00:32:00.566Z,982.1
2023-04-15T00:33:00.609Z,982.1
2023-04-15T00:34:00.544Z,982.1
2023-04-15T00:35:00.592Z,982.3
2023-04-15T00:36:00.618Z,982.3
2023-04-15T00:37:00.586Z,982.3
2023-04-15T00:38:00.628Z,982.3
2023-04-15T00:39:00.866Z,982.3
2023-04-15T00:40:00.600Z,982.5
2023-04-15T00:41:00.600Z,982.7
2023-04-15T00:42:00.573Z,982.5
2023-04-15T00:43:00.636Z,982.5
2023-04-15T00:44:00.585Z,982.7
2023-04-15T00:45:00.584Z,982.7
2023-04-15T00:46:00.601Z,982.5
2023-04-15T00:47:00.575Z,982.5
2023-04-15T00:48:00.672Z,982.5
2023-04-15T00:49:00.819Z,982.3
2023-04-15T00:50:00.610Z,982.5
2023-04-15T00:51:00.579Z,982.5
2023-04-15T00:52:00.569Z,982.7
2023-04-15T00:53:00.559Z,982.5
2023-04-15T00:54:00.585Z,982.7
2023-04-15T00:55:00.587Z,982.7
2023-04-15T00:56:00.588Z,982.5
2023-04-15T00:57:00.565Z,982.7
2023-04-15T00:58:00.586Z,982.3
2023-04-15T00:59:00.762Z,982.5
2023-04-15T01:00:00.618Z,982.5
2023-04-15T01:01:00.628Z,982.5
2023-04-15T01:02:00.723Z,982.7
2023-04-15T01:03:00.929Z,982.7
2023-04-15T01:04:00.739Z,982.7
2023-04-15T01:05:00.639Z,982.7
2023-04-15T01:06:02.209Z,982.7
2023-04-15T01:07:00.602Z,982.5
2023-04-15T01:08:00.627Z,982.7
2023-04-15T01:09:00.874Z,982.7
2023-04-15T01:10:00.592Z,982.7
2023-04-15T01:11:00.625Z,982.7
2023-04-15T01:12:00.592Z,982.7
2023-04-15T01:13:00.578Z,982.7
2023-04-15T01:14:00.610Z,982.7
2023-04-15T01:15:00.590Z,982.7
2023-04-15T01:16:00.653Z,982.7
2023-04-15T01:17:00.603Z,982.7
2023-04-15T01:18:00.667Z,982.7
2023-04-15T01:19:00.840Z,982.7
2023-04-15T01:20:00.609Z,982.7
2023-04-15T01:21:00.611Z,982.7
2023-04-15T01:22:00.589Z,982.7
2023-04-15T01:23:00.592Z,982.7
2023-04-15T01:24:00.639Z,982.7
2023-04-15T01:25:00.613Z,982.7
2023-04-15T01:26:00.623Z,982.5
2023-04-15T01:27:00.657Z,982.7
2023-04-15T01:28:00.590Z,982.5
2023-04-15T01:29:00.788Z,982.5
2023-04-15T01:30:00.680Z,982.3
2023-04-15T01:31:00.678Z,982.5
2023-04-15T01:32:00.613Z,982.5
2023-04-15T01:33:00.663Z,982.5
2023-04-15T01:34:00.607Z,982.3
2023-04-15T01:35:00.623Z,982.7
2023-04-15T01:36:00.647Z,982.7
2023-04-15T01:37:00.623Z,982.7
2023-04-15T01:38:00.612Z,982.3
2023-04-15T01:39:00.890Z,982.5
2023-04-15T01:40:00.626Z,982.5
2023-04-15T01:41:00.618Z,982.5
2023-04-15T01:42:00.660Z,982.5
2023-04-15T01:43:00.613Z,982.3
2023-04-15T01:44:00.616Z,982.3
2023-04-15T01:45:00.657Z,982.5
2023-04-15T01:46:00.666Z,982.5
2023-04-15T01:47:00.669Z,982.5
2023-04-15T01:48:00.684Z,982.5
2023-04-15T01:49:00.775Z,982.7
2023-04-15T01:50:00.640Z,982.5
2023-04-15T01:51:00.652Z,982.7
2023-04-15T01:52:00.628Z,982.7
2023-04-15T01:53:00.631Z,982.7
2023-04-15T01:54:00.627Z,982.7
2023-04-15T01:55:00.657Z,982.7
2023-04-15T01:56:00.640Z,982.7
2023-04-15T01:57:00.640Z,982.7
2023-04-15T01:58:00.649Z,982.7
2023-04-15T01:59:00.857Z,983
2023-04-15T02:00:00.817Z,982.7
2023-04-15T02:01:01.575Z,982.7
2023-04-15T02:02:01.564Z,982.7
2023-04-15T02:03:01.555Z,982.7
2023-04-15T02:04:01.563Z,983
2023-04-15T02:05:01.531Z,983
2023-04-15T02:06:01.537Z,983.2
2023-04-15T02:07:01.679Z,983.2
2023-04-15T02:08:01.503Z,983.4
2023-04-15T02:09:01.782Z,983.4
2023-04-15T02:10:01.621Z,983.6
2023-04-15T02:11:01.492Z,983.6
2023-04-15T02:12:01.511Z,983.6
2023-04-15T02:13:01.507Z,983.6
2023-04-15T02:14:01.521Z,983.6
2023-04-15T02:15:01.538Z,983.6
2023-04-15T02:16:01.610Z,983.6
2023-04-15T02:17:01.507Z,983.6
2023-04-15T02:18:01.599Z,983.6
2023-04-15T02:19:01.801Z,983.6
2023-04-15T02:20:01.569Z,983.6
2023-04-15T02:21:01.512Z,983.6
2023-04-15T02:22:01.526Z,983.6
2023-04-15T02:23:01.574Z,983.6
2023-04-15T02:24:01.511Z,983.6
2023-04-15T02:25:01.545Z,983.6
2023-04-15T02:26:01.510Z,983.8
2023-04-15T02:27:01.514Z,984
2023-04-15T02:28:01.521Z,984
2023-04-15T02:29:01.637Z,984
2023-04-15T02:30:01.567Z,984
2023-04-15T02:31:01.521Z,984
2023-04-15T02:32:01.617Z,984
2023-04-15T02:33:01.573Z,984
2023-04-15T02:34:01.532Z,984
2023-04-15T02:35:01.597Z,984
2023-04-15T02:36:01.540Z,984.3
2023-04-15T02:37:01.669Z,984.3
2023-04-15T02:38:01.523Z,984.3
2023-04-15T02:39:01.636Z,984.3
2023-04-15T02:40:01.684Z,984.3
2023-04-15T02:41:01.543Z,984.5
2023-04-15T02:42:01.637Z,984.5
2023-04-15T02:43:01.534Z,984.5
2023-04-15T02:44:01.545Z,984.5
2023-04-15T02:45:01.564Z,984.7
2023-04-15T02:46:01.575Z,984.9
2023-04-15T02:47:01.539Z,984.9
2023-04-15T02:48:01.557Z,984.9
2023-04-15T02:49:01.640Z,984.9
2023-04-15T02:50:01.578Z,984.9
2023-04-15T02:51:01.546Z,984.9
2023-04-15T02:52:01.591Z,984.9
2023-04-15T02:53:01.878Z,984.9
2023-04-15T02:54:01.592Z,984.9
2023-04-15T02:55:01.583Z,984.9
2023-04-15T02:56:01.538Z,984.9
2023-04-15T02:57:01.556Z,984.9
2023-04-15T02:58:01.552Z,984.9
2023-04-15T02:59:01.992Z,984.9
2023-04-15T03:00:01.913Z,984.9
2023-04-15T03:01:01.567Z,984.9
2023-04-15T03:02:01.573Z,985.1
2023-04-15T03:03:01.752Z,985.1
2023-04-15T03:04:01.634Z,984.9
2023-04-15T03:05:01.565Z,984.9
2023-04-15T03:06:01.553Z,984.9
2023-04-15T03:07:01.570Z,984.9
2023-04-15T03:08:01.623Z,984.9
2023-04-15T03:09:01.894Z,984.9
2023-04-15T03:10:01.588Z,985.1
2023-04-15T03:11:01.620Z,985.1
2023-04-15T03:12:01.603Z,985.1
2023-04-15T03:13:01.597Z,985.1
2023-04-15T03:14:01.558Z,984.9
2023-04-15T03:15:01.647Z,984.9
2023-04-15T03:16:01.601Z,985.1
2023-04-15T03:17:01.575Z,985.1
2023-04-15T03:18:01.602Z,985.1
2023-04-15T03:19:01.870Z,985.1
2023-04-15T03:20:01.621Z,985.1
2023-04-15T03:21:01.566Z,985.4
2023-04-15T03:22:01.588Z,985.4
2023-04-15T03:23:01.590Z,985.1
2023-04-15T03:24:01.564Z,985.4
2023-04-15T03:25:01.575Z,985.4
2023-04-15T03:26:01.573Z,985.4
2023-04-15T03:27:01.588Z,985.4
2023-04-15T03:28:01.567Z,985.4
2023-04-15T03:29:01.801Z,985.4
2023-04-15T03:30:01.634Z,985.4
2023-04-15T03:31:01.620Z,985.4
2023-04-15T03:32:01.626Z,985.4
2023-04-15T03:33:01.774Z,985.6
2023-04-15T03:34:01.665Z,985.8
2023-04-15T03:35:01.585Z,985.8
2023-04-15T03:36:01.578Z,985.8
2023-04-15T03:37:01.622Z,985.8
2023-04-15T03:38:01.582Z,985.6
2023-04-15T03:39:01.818Z,985.6
2023-04-15T03:40:01.629Z,985.6
2023-04-15T03:41:01.613Z,985.6
2023-04-15T03:42:01.622Z,985.6
2023-04-15T03:43:01.588Z,985.4
2023-04-15T03:44:01.594Z,985.4
2023-04-15T03:45:01.594Z,985.4
2023-04-15T03:46:02.108Z,985.4
2023-04-15T03:47:01.627Z,985.4
2023-04-15T03:49:01.806Z,985.6
2023-04-15T03:50:01.672Z,985.6
2023-04-15T03:51:01.634Z,985.4
2023-04-15T03:52:01.660Z,985.6
2023-04-15T03:53:01.594Z,985.6
2023-04-15T03:54:01.616Z,985.6
2023-04-15T03:55:01.602Z,985.4
2023-04-15T03:56:01.656Z,985.6
2023-04-15T03:57:01.605Z,985.6
2023-04-15T03:58:01.646Z,985.6
2023-04-15T03:59:01.921Z,985.6
2023-04-15T04:00:01.847Z,985.8
2023-04-15T04:01:01.641Z,985.6
2023-04-15T04:02:01.734Z,985.6
2023-04-15T04:03:01.887Z,985.8
2023-04-15T04:04:01.764Z,985.8
2023-04-15T04:05:01.638Z,985.8
2023-04-15T04:06:01.643Z,985.8
2023-04-15T04:07:01.649Z,985.8
2023-04-15T04:08:01.653Z,985.8
2023-04-15T04:09:01.912Z,985.8
2023-04-15T04:10:01.667Z,985.8
2023-04-15T04:11:01.688Z,985.8
2023-04-15T04:12:01.716Z,985.8
2023-04-15T04:13:01.654Z,985.8
2023-04-15T04:14:01.638Z,985.8
2023-04-15T04:15:01.747Z,985.8
2023-04-15T04:16:01.764Z,985.8
2023-04-15T04:17:01.722Z,985.8
2023-04-15T04:18:01.751Z,985.8
2023-04-15T04:19:01.818Z,985.8
2023-04-15T04:20:01.708Z,985.8
2023-04-15T04:21:01.662Z,985.8
2023-04-15T04:22:01.691Z,985.8
2023-04-15T04:23:01.648Z,985.8
2023-04-15T04:24:01.712Z,985.8
2023-04-15T04:25:01.657Z,985.8
2023-04-15T04:26:01.663Z,985.8
2023-04-15T04:27:01.740Z,986
2023-04-15T04:28:01.740Z,986
2023-04-15T04:29:01.913Z,986
2023-04-15T04:30:00.532Z,986.2
2023-04-15T04:31:00.544Z,986.2
2023-04-15T04:32:00.573Z,986.2
2023-04-15T04:33:00.583Z,986.2
2023-04-15T04:34:00.524Z,986.2
2023-04-15T04:35:00.517Z,986.2
2023-04-15T04:36:00.501Z,986.2
2023-04-15T04:37:00.525Z,986.2
2023-04-15T04:38:00.504Z,986.2
2023-04-15T04:39:00.826Z,986.2
2023-04-15T04:40:00.529Z,986.2
2023-04-15T04:41:00.498Z,986.2
2023-04-15T04:42:00.527Z,986.4
2023-04-15T04:43:00.502Z,986.2
2023-04-15T04:44:00.549Z,986.2
2023-04-15T04:45:00.504Z,986.2
2023-04-15T04:46:00.573Z,986.2
2023-04-15T04:47:00.549Z,986.2
2023-04-15T04:48:00.570Z,986.2
2023-04-15T04:49:00.658Z,986.2
2023-04-15T04:50:00.649Z,986.2
2023-04-15T04:51:00.503Z,986.2
2023-04-15T04:52:00.536Z,986.2
2023-04-15T04:53:00.559Z,986.2
2023-04-15T04:54:02.450Z,986.2
2023-04-15T04:55:00.544Z,986.2
2023-04-15T04:56:00.511Z,986.2
2023-04-15T04:57:00.555Z,986.2
2023-04-15T04:58:00.523Z,986.2
2023-04-15T04:59:00.809Z,986.4
2023-04-15T05:00:00.736Z,986.2
2023-04-15T05:01:00.578Z,986.2
2023-04-15T05:02:00.707Z,986.2
2023-04-15T05:03:00.817Z,986.4
2023-04-15T05:04:00.860Z,986.2
2023-04-15T05:05:00.520Z,986.2
2023-04-15T05:06:00.528Z,986.2
2023-04-15T05:07:00.547Z,986.2
2023-04-15T05:08:00.530Z,986.2
2023-04-15T05:09:00.905Z,986.2
2023-04-15T05:10:00.584Z,986.2
2023-04-15T05:11:00.551Z,986.2
2023-04-15T05:12:00.546Z,986.2
2023-04-15T05:13:00.527Z,986.2
2023-04-15T05:14:00.562Z,986.2
2023-04-15T05:15:00.576Z,986.2
2023-04-15T05:16:00.583Z,986.2
2023-04-15T05:17:00.548Z,986.2
2023-04-15T05:18:00.569Z,986.2
2023-04-15T05:19:00.883Z,986.2
2023-04-15T05:20:00.547Z,986.2
2023-04-15T05:21:00.572Z,986
2023-04-15T05:22:00.565Z,986
2023-04-15T05:23:00.546Z,985.8
2023-04-15T05:24:00.553Z,985.8
2023-04-15T05:25:00.587Z,985.8
2023-04-15T05:26:00.583Z,985.8
2023-04-15T05:27:00.595Z,985.8
2023-04-15T05:28:00.563Z,985.6
2023-04-15T05:29:00.880Z,985.8
2023-04-15T05:30:00.585Z,985.6
2023-04-15T05:31:00.594Z,985.4
2023-04-15T05:32:00.585Z,985.4
2023-04-15T05:33:00.577Z,985.4
2023-04-15T05:34:00.563Z,985.4
2023-04-15T05:35:00.559Z,985.4
2023-04-15T05:36:00.583Z,985.4
2023-04-15T05:37:00.580Z,985.1
2023-04-15T05:38:00.571Z,985.1
2023-04-15T05:39:00.978Z,985.1
2023-04-15T05:40:00.601Z,985.1
2023-04-15T05:41:00.563Z,985.1
2023-04-15T05:42:00.589Z,984.9
2023-04-15T05:43:00.563Z,984.9
2023-04-15T05:44:00.607Z,984.9
2023-04-15T05:45:00.563Z,984.9
2023-04-15T05:46:00.600Z,984.9
2023-04-15T05:47:00.591Z,984.9
2023-04-15T05:48:00.637Z,984.9
2023-04-15T05:49:00.884Z,984.9
2023-04-15T05:50:00.565Z,984.9
2023-04-15T05:51:00.597Z,984.7
2023-04-15T05:52:00.588Z,984.7
2023-04-15T05:53:00.575Z,984.9
2023-04-15T05:54:00.595Z,984.7
2023-04-15T05:55:00.614Z,984.5
2023-04-15T05:56:00.616Z,984.5
2023-04-15T05:57:00.593Z,984.5
2023-04-15T05:58:00.575Z,984.5
2023-04-15T05:59:00.908Z,984.3
2023-04-15T06:00:00.576Z,984.3
2023-04-15T06:01:00.589Z,984.3
2023-04-15T06:02:00.604Z,984
2023-04-15T06:03:00.704Z,984
2023-04-15T06:04:00.716Z,984
2023-04-15T06:05:00.731Z,983.8
2023-04-15T06:06:00.595Z,983.6
2023-04-15T06:07:00.588Z,983.8
2023-04-15T06:08:00.603Z,983.6
2023-04-15T06:09:00.930Z,983.6
2023-04-15T06:10:00.619Z,983.6
2023-04-15T06:11:00.600Z,983.6
2023-04-15T06:12:00.590Z,983.6
2023-04-15T06:13:00.585Z,983.6
2023-04-15T06:14:00.612Z,983.2
2023-04-15T06:15:00.618Z,983
2023-04-15T06:16:00.625Z,983
2023-04-15T06:17:00.615Z,982.7
2023-04-15T06:18:00.638Z,982.7
2023-04-15T06:19:01.054Z,982.7
2023-04-15T06:20:00.596Z,982.7
2023-04-15T06:21:00.638Z,982.7
2023-04-15T06:22:00.614Z,982.7
2023-04-15T06:23:00.614Z,982.7
2023-04-15T06:24:00.633Z,982.7
2023-04-15T06:25:00.620Z,982.7
2023-04-15T06:26:00.626Z,982.7
2023-04-15T06:27:00.604Z,982.7
2023-04-15T06:28:00.612Z,982.7
2023-04-15T06:29:00.917Z,982.3
2023-04-15T06:30:00.608Z,982.3
2023-04-15T06:31:00.628Z,982.3
2023-04-15T06:32:00.679Z,982.3
2023-04-15T06:33:00.707Z,982.3
2023-04-15T06:34:00.639Z,982.3
2023-04-15T06:35:00.633Z,982.3
2023-04-15T06:36:00.647Z,982.3
2023-04-15T06:37:00.617Z,982.3
2023-04-15T06:38:00.621Z,982.1
2023-04-15T06:39:00.812Z,981.9
2023-04-15T06:40:00.647Z,981.9
2023-04-15T06:41:00.656Z,981.9
2023-04-15T06:42:00.618Z,981.7
2023-04-15T06:43:00.618Z,981.7
2023-04-15T06:44:00.651Z,981.2
2023-04-15T06:45:00.633Z,980.1
2023-04-15T06:46:00.674Z,980.1
2023-04-15T06:47:00.644Z,979.7
2023-04-15T06:48:00.760Z,979.7
2023-04-15T06:49:00.790Z,979.7
2023-04-15T06:50:00.620Z,979.9
2023-04-15T06:51:00.657Z,980.1
2023-04-15T06:52:00.664Z,979.7
2023-04-15T06:53:00.652Z,979.7
2023-04-15T06:54:00.645Z,979.3
2023-04-15T06:55:00.686Z,978.8
2023-04-15T06:56:00.664Z,978.8
2023-04-15T06:57:00.643Z,978
2023-04-15T06:58:00.701Z,977.7
2023-04-15T06:59:00.881Z,978
2023-04-15T07:00:00.722Z,978
2023-04-15T07:01:00.693Z,978
2023-04-15T07:02:00.710Z,977.7
2023-04-15T07:03:00.718Z,978.2
2023-04-15T07:04:00.737Z,977.7
2023-04-15T07:05:00.678Z,978
2023-04-15T07:06:00.678Z,978
2023-04-15T07:07:00.662Z,978
2023-04-15T07:08:00.662Z,977.7
2023-04-15T07:09:00.987Z,977.5
2023-04-15T07:10:00.674Z,977.3
2023-04-15T07:11:00.676Z,977.1
2023-04-15T07:12:00.643Z,977.1
2023-04-15T07:13:00.644Z,977.3
2023-04-15T07:14:00.654Z,977.3
2023-04-15T07:15:00.693Z,976.4
2023-04-15T07:16:00.644Z,975.6
2023-04-15T07:17:00.728Z,975.8
2023-04-15T07:18:00.721Z,975.4
2023-04-15T07:19:00.923Z,974.9
2023-04-15T07:20:00.666Z,974.9
2023-04-15T07:21:00.668Z,974
2023-04-15T07:22:00.647Z,974.7
2023-04-15T07:23:00.674Z,974.3
2023-04-15T07:24:00.652Z,973.6
2023-04-15T07:25:00.675Z,973.4
2023-04-15T07:26:00.671Z,973.4
2023-04-15T07:27:01.384Z,973
2023-04-15T07:28:00.678Z,973.2
2023-04-15T07:29:00.972Z,972.7
2023-04-15T07:30:00.684Z,972.7
2023-04-15T07:31:00.686Z,973.2
2023-04-15T07:32:00.670Z,973
2023-04-15T07:33:00.706Z,972.3
2023-04-15T07:34:00.676Z,972.3
2023-04-15T07:35:00.681Z,972.5
2023-04-15T07:36:00.688Z,972.3
2023-04-15T07:37:00.696Z,971.9
2023-04-15T07:38:00.690Z,971.9
2023-04-15T07:39:00.916Z,971.7
2023-04-15T07:40:00.706Z,971.9
2023-04-15T07:41:00.674Z,971.9
2023-04-15T07:42:00.667Z,971.4
2023-04-15T07:43:00.677Z,970.8
2023-04-15T07:44:00.691Z,971
2023-04-15T07:45:00.704Z,970.4
2023-04-15T07:46:00.703Z,970.4
2023-04-15T07:47:00.697Z,970.8
2023-04-15T07:48:00.724Z,970.6
2023-04-15T07:49:01.030Z,970.1
2023-04-15T07:50:00.722Z,969.5
2023-04-15T07:51:00.680Z,970.1
2023-04-15T07:52:00.680Z,970.6
2023-04-15T07:53:00.701Z,970.6
2023-04-15T07:54:00.752Z,970.1
2023-04-15T07:55:00.712Z,970.6
2023-04-15T07:56:00.684Z,969.7
2023-04-15T07:57:00.703Z,970.1
2023-04-15T07:58:00.700Z,969.7
2023-04-15T07:59:00.881Z,969.3
2023-04-15T08:00:00.765Z,969.7
2023-04-15T08:01:00.691Z,969.5
2023-04-15T08:02:00.814Z,969.3
2023-04-15T08:03:00.970Z,969.3
2023-04-15T08:04:00.910Z,968.8
2023-04-15T08:05:00.801Z,968.8
2023-04-15T08:06:00.762Z,968.4
2023-04-15T08:07:00.729Z,968.4
2023-04-15T08:08:00.702Z,969.3
2023-04-15T08:09:01.162Z,968.2
2023-04-15T08:10:00.734Z,968.4
2023-04-15T08:11:00.723Z,968.4
2023-04-15T08:12:00.722Z,968.4
2023-04-15T08:13:00.705Z,968.2
2023-04-15T08:14:00.717Z,967.5
2023-04-15T08:15:00.761Z,968
2023-04-15T08:16:00.818Z,968.2
2023-04-15T08:17:00.713Z,968
2023-04-15T08:18:00.879Z,968
2023-04-15T08:19:00.888Z,968
2023-04-15T08:20:00.742Z,967.5
2023-04-15T08:21:00.740Z,967.5
2023-04-15T08:22:00.710Z,967.3
2023-04-15T08:23:00.713Z,967.5
2023-04-15T08:24:00.721Z,968.4
2023-04-15T08:25:00.765Z,968
2023-04-15T08:26:00.720Z,967.1
2023-04-15T08:27:00.750Z,966.7
2023-04-15T08:28:00.729Z,966.7
2023-04-15T08:29:00.994Z,966.7
2023-04-15T08:30:02.771Z,967.1
2023-04-15T08:31:00.736Z,966.2
2023-04-15T08:32:00.797Z,966.2
2023-04-15T08:33:00.773Z,966.2
2023-04-15T08:34:00.738Z,966.2
2023-04-15T08:35:00.756Z,966.2
2023-04-15T08:36:00.746Z,966.7
2023-04-15T08:37:00.758Z,966
2023-04-15T08:38:00.727Z,966
2023-04-15T08:39:00.987Z,966
2023-04-15T08:40:00.753Z,964.9
2023-04-15T08:41:00.728Z,965.4
2023-04-15T08:42:00.942Z,964.9
2023-04-15T08:43:00.755Z,965.6
2023-04-15T08:44:00.733Z,964.9
2023-04-15T08:45:00.816Z,964
2023-04-15T08:46:00.725Z,963.6
2023-04-15T08:47:00.778Z,964.3
2023-04-15T08:48:00.771Z,964.7
2023-04-15T08:49:01.131Z,964
2023-04-15T08:50:00.764Z,963.4
2023-04-15T08:51:00.809Z,963.6
2023-04-15T08:52:00.785Z,963.6
2023-04-15T08:53:00.770Z,963
2023-04-15T08:54:00.765Z,964
2023-04-15T08:55:00.778Z,964
2023-04-15T08:56:00.795Z,962.7
2023-04-15T08:57:00.804Z,961.2
2023-04-15T08:58:00.760Z,961.4
2023-04-15T08:59:01.192Z,962.5
2023-04-15T09:00:02.913Z,962.7
2023-04-15T09:01:00.769Z,962.3
2023-04-15T09:02:00.766Z,963.2
2023-04-15T09:03:00.810Z,962.3
2023-04-15T09:04:00.803Z,961.9
2023-04-15T09:05:00.789Z,961.2
2023-04-15T09:06:00.796Z,962.3
2023-04-15T09:07:00.772Z,961.9
2023-04-15T09:08:00.808Z,962.7
2023-04-15T09:09:01.059Z,963.2
2023-04-15T09:10:00.793Z,962.7
2023-04-15T09:11:00.772Z,962.5
2023-04-15T09:12:00.800Z,961.9
2023-04-15T09:13:00.782Z,962.7
2023-04-15T09:14:00.811Z,963.2
2023-04-15T09:15:00.801Z,963
2023-04-15T09:16:00.794Z,963.2
2023-04-15T09:17:00.874Z,963.6
2023-04-15T09:18:00.864Z,963.6
2023-04-15T09:19:01.004Z,963.2
2023-04-15T09:20:00.794Z,963.4
2023-04-15T09:21:00.833Z,962.5
2023-04-15T09:22:00.778Z,963.2
2023-04-15T09:23:00.826Z,963.2
2023-04-15T09:24:01.162Z,962.7
2023-04-15T09:25:00.797Z,963.2
2023-04-15T09:26:00.773Z,962.3
2023-04-15T09:27:00.819Z,962.5
2023-04-15T09:28:00.834Z,961.4
2023-04-15T09:29:00.779Z,961.9
2023-04-15T09:30:00.808Z,962.3
2023-04-15T09:31:00.802Z,962.7
2023-04-15T09:32:00.808Z,962.3
2023-04-15T09:33:00.868Z,962.3
2023-04-15T09:34:01.043Z,962.1
2023-04-15T09:35:00.808Z,962.3
2023-04-15T09:36:00.798Z,961.9
2023-04-15T09:37:00.934Z,960.6
2023-04-15T09:38:00.810Z,961.4
2023-04-15T09:39:00.804Z,961.9
2023-04-15T09:40:00.810Z,960.8
2023-04-15T09:41:00.815Z,961.4
2023-04-15T09:42:00.799Z,961.7
2023-04-15T09:43:00.793Z,960.6
2023-04-15T09:44:01.132Z,959.3
2023-04-15T09:45:00.811Z,960.8
2023-04-15T09:46:00.852Z,961
2023-04-15T09:47:00.798Z,960.6
2023-04-15T09:48:00.940Z,959.7
2023-04-15T09:49:00.793Z,959.3
2023-04-15T09:50:00.921Z,958.4
2023-04-15T09:51:00.833Z,959
2023-04-15T09:52:05.768Z,958
2023-04-15T09:53:00.835Z,958.8
2023-04-15T09:54:01.107Z,959.3
2023-04-15T09:55:00.818Z,959
2023-04-15T09:56:00.855Z,958.6
2023-04-15T09:57:00.831Z,958.6
2023-04-15T09:58:00.819Z,958.4
2023-04-15T09:59:00.832Z,958.8
2023-04-15T10:00:00.822Z,958
2023-04-15T10:01:00.884Z,957.1
2023-04-15T10:02:00.830Z,957.1
2023-04-15T10:03:00.949Z,957.1
2023-04-15T10:04:01.086Z,958
2023-04-15T10:05:00.815Z,956.7
2023-04-15T10:06:00.895Z,957.3
2023-04-15T10:07:00.816Z,956.4
2023-04-15T10:08:00.849Z,957.1
2023-04-15T10:09:00.857Z,957.5
2023-04-15T10:10:00.829Z,958.4
2023-04-15T10:11:00.861Z,957.5
2023-04-15T10:12:00.853Z,956.7
2023-04-15T10:13:00.824Z,957.1
2023-04-15T10:14:01.175Z,956.9
2023-04-15T10:15:00.877Z,956.7
2023-04-15T10:16:00.863Z,956.7
2023-04-15T10:17:00.831Z,957.5
2023-04-15T10:18:00.936Z,957.1
2023-04-15T10:19:00.855Z,957.5
2023-04-15T10:20:00.868Z,958
2023-04-15T10:21:00.899Z,957.1
2023-04-15T10:22:00.849Z,957.5
2023-04-15T10:23:00.870Z,957.3
2023-04-15T10:24:01.208Z,956.7
2023-04-15T10:25:00.911Z,957.5
2023-04-15T10:26:00.867Z,957.1
2023-04-15T10:27:00.935Z,956.2
2023-04-15T10:28:00.914Z,956.2
2023-04-15T10:29:00.862Z,955.6
2023-04-15T10:30:00.877Z,956.2
2023-04-15T10:31:00.823Z,957.3
2023-04-15T10:32:00.771Z,957.1
2023-04-15T10:33:00.751Z,955.8
2023-04-15T10:34:01.011Z,955.8
2023-04-15T10:35:00.692Z,954.9
2023-04-15T10:36:00.657Z,954.9
2023-04-15T10:37:00.611Z,954.5
2023-04-15T10:38:00.616Z,955.6
2023-04-15T10:39:00.610Z,956.9
2023-04-15T10:40:00.553Z,957.1
2023-04-15T10:41:00.524Z,958
2023-04-15T10:42:00.467Z,958.4
2023-04-15T10:43:00.449Z,957.3
2023-04-15T10:44:00.630Z,957.7
2023-04-15T10:45:00.459Z,958.4
2023-04-15T10:46:00.426Z,958.8
2023-04-15T10:47:00.705Z,958.8
2023-04-15T10:48:02.280Z,958.2
2023-04-15T10:49:00.466Z,958.4
2023-04-15T10:50:00.482Z,958.4
2023-04-15T10:51:00.444Z,958
2023-04-15T10:52:00.434Z,957.5
2023-04-15T10:53:00.458Z,958
2023-04-15T10:54:01.445Z,958.2
2023-04-15T10:55:00.461Z,958
2023-04-15T10:56:00.435Z,958
2023-04-15T10:57:00.442Z,958
2023-04-15T10:58:00.429Z,956.9
2023-04-15T10:59:00.436Z,958
2023-04-15T11:00:00.506Z,958.2
2023-04-15T11:01:00.459Z,958
2023-04-15T11:02:00.657Z,956.7
2023-04-15T11:03:00.611Z,957.1
2023-04-15T17:51:00.346Z,963.8
2023-04-15T17:52:00.339Z,963.8
2023-04-15T17:53:00.289Z,963.6
2023-04-15T17:54:00.291Z,962.3
2023-04-15T17:55:00.286Z,963
2023-04-15T17:56:00.313Z,963.6
2023-04-15T17:57:00.360Z,962.7
2023-04-15T17:58:00.315Z,962.3
2023-04-15T17:59:00.312Z,962.3
2023-04-15T18:00:00.400Z,962.7
2023-04-15T18:01:00.326Z,963.6
2023-04-15T18:02:00.498Z,964
2023-04-15T18:03:00.463Z,964.5
2023-04-15T18:04:00.491Z,964.9
2023-04-15T18:05:00.605Z,964.9
2023-04-15T18:06:00.331Z,966
2023-04-15T18:07:00.308Z,966.7
2023-04-15T18:08:00.307Z,967.1
2023-04-15T18:09:00.310Z,967.1
2023-04-15T18:10:00.336Z,967.5
2023-04-15T18:11:00.322Z,967.5
2023-04-15T18:12:00.310Z,967.5
2023-04-15T18:13:00.320Z,967.1
2023-04-15T18:14:00.337Z,966.9
2023-04-15T18:15:00.331Z,966.9
2023-04-15T18:16:00.332Z,966.9
2023-04-15T18:17:00.310Z,967.3
2023-04-15T18:18:00.363Z,967.1
2023-04-15T18:19:00.362Z,966.7
2023-04-15T18:20:00.346Z,966.7
2023-04-15T18:21:00.317Z,967.1
2023-04-15T18:22:00.726Z,967.1
2023-04-15T18:23:00.317Z,967.5
2023-04-15T18:24:00.354Z,967.5
2023-04-15T18:25:00.331Z,967.3
2023-04-15T18:26:00.333Z,967.7
2023-04-15T18:27:00.366Z,967.5
2023-04-15T18:28:00.320Z,967.5
2023-04-15T18:29:00.361Z,967.5
2023-04-15T18:30:00.402Z,967.7
2023-04-15T18:31:00.328Z,967.1
2023-04-15T18:32:00.600Z,966.2
2023-04-15T18:33:00.419Z,965.8
2023-04-15T18:34:00.360Z,965.6
2023-04-15T18:35:00.356Z,965.8
2023-04-15T18:36:00.345Z,965.8
2023-04-15T18:37:00.342Z,965.8
2023-04-15T18:38:00.346Z,966
2023-04-15T18:39:00.375Z,966
2023-04-15T18:40:00.348Z,966.4
2023-04-15T18:41:00.349Z,966.7
2023-04-15T18:42:00.372Z,967.5
2023-04-15T18:43:00.352Z,967.1
2023-04-15T18:44:00.377Z,965.8
2023-04-15T18:45:00.381Z,964.9
2023-04-15T18:46:00.428Z,965.4
2023-04-15T18:47:00.366Z,965.4
2023-04-15T18:48:00.375Z,965.4
2023-04-15T18:49:00.379Z,965.4
2023-04-15T18:50:00.373Z,965.4
2023-04-15T18:51:00.348Z,965.1
2023-04-15T18:52:00.346Z,964.9
2023-04-15T18:53:00.354Z,964.9
2023-04-15T18:54:00.373Z,965.4
2023-04-15T18:55:00.381Z,965.8
2023-04-15T18:56:00.356Z,965.6
2023-04-15T18:57:00.385Z,965.8
2023-04-15T18:58:06.410Z,965.8
2023-04-15T18:59:23.112Z,966.2
2023-04-15T19:00:00.354Z,965.8
2023-04-15T19:01:00.430Z,966
2023-04-15T19:02:00.479Z,966.2
2023-04-15T19:03:00.442Z,966.4
2023-04-15T19:04:00.432Z,966.7
2023-04-15T19:05:00.385Z,966.7
2023-04-15T19:06:00.395Z,966.7
2023-04-15T19:07:00.365Z,966.7
2023-04-15T19:08:00.389Z,966.9
2023-04-15T19:09:00.400Z,967.5
2023-04-15T19:10:00.372Z,967.5
2023-04-15T19:11:00.371Z,967.3
2023-04-15T19:12:00.394Z,967.3
2023-04-15T19:13:00.374Z,967.5
2023-04-15T19:14:00.411Z,967.5
2023-04-15T19:15:00.399Z,967.5
2023-04-15T19:16:00.445Z,967.7
2023-04-15T19:17:00.435Z,968
2023-04-15T19:18:00.446Z,968.8
2023-04-15T19:19:00.376Z,968.4
2023-04-15T19:20:00.445Z,968.4
2023-04-15T19:21:00.392Z,968.6
2023-04-15T19:22:00.377Z,968
2023-04-15T19:23:00.385Z,968.4
2023-04-15T19:24:00.376Z,969.3
2023-04-15T19:25:00.406Z,969.3
2023-04-15T19:26:00.419Z,969.7
2023-04-15T19:27:00.386Z,970.1
2023-04-15T19:28:00.394Z,969.9
2023-04-15T19:29:00.410Z,970.1
2023-04-15T19:30:00.431Z,969.7
2023-04-15T19:31:00.480Z,970.1
2023-04-15T19:32:00.397Z,970.4
2023-04-15T19:33:00.567Z,970.6
2023-04-15T19:34:00.407Z,970.1
2023-04-15T19:35:00.426Z,970.4
2023-04-15T19:36:00.415Z,970.4
2023-04-15T19:37:00.403Z,971
2023-04-15T19:38:00.402Z,970.8
2023-04-15T19:39:00.430Z,971
2023-04-15T19:40:00.453Z,971
2023-04-15T19:41:00.422Z,971.2
2023-04-15T19:42:00.408Z,971.4
2023-04-15T19:43:00.410Z,971.4
2023-04-15T19:44:00.413Z,971.7
2023-04-15T19:45:00.471Z,971.4